createdAt,value
2017-09-09T10:53:26.398Z,21.2
2017-09-09T10:54:23.200Z,21.8
2017-09-09T10:55:03.152Z,21.9
2017-09-09T15:17:30.592Z,20.8
2017-09-09T15:18:03.192Z,20.7
2017-09-09T15:19:04.192Z,20.5
2017-09-09T15:20:03.615Z,20.4
2017-09-09T15:21:02.824Z,20.4
2017-09-09T15:22:03.822Z,20.3
2017-09-09T15:23:34.942Z,20.2
2017-09-09T15:24:03.364Z,20.2
2017-09-09T15:25:04.226Z,20.3
2017-09-09T15:26:08.786Z,20.2
2017-09-09T15:27:03.782Z,20.2
2017-09-09T15:28:03.745Z,20.2
2017-09-09T15:29:08.093Z,20.1
2017-09-09T15:30:03.513Z,20.1
2017-09-09T15:31:03.140Z,20.1
2017-09-09T15:32:03.564Z,20.1
2017-09-09T15:33:02.977Z,20.1
2017-09-09T15:34:03.783Z,20
2017-09-09T15:35:03.594Z,20
2017-09-09T15:36:03.308Z,20
2017-09-09T15:37:02.709Z,20
2017-09-09T15:38:03.353Z,20
2017-09-09T15:39:02.975Z,19.9
2017-09-09T15:40:03.693Z,19.9
2017-09-09T15:41:03.526Z,19.9
2017-09-09T15:42:02.949Z,19.9
2017-09-09T15:43:03.377Z,19.9
2017-09-09T15:44:03.376Z,19.9
2017-09-09T15:45:02.833Z,19.8
2017-09-09T15:46:03.447Z,19.8
2017-09-09T15:47:02.884Z,19.8
2017-09-09T15:48:03.692Z,19.8
2017-09-09T15:49:03.311Z,19.8
2017-09-09T15:50:02.927Z,19.8
2017-09-09T15:51:03.365Z,19.7
2017-09-09T15:52:03.986Z,19.7
2017-09-09T15:53:03.761Z,19.8
2017-09-09T15:54:03.372Z,19.8
2017-09-09T15:55:03.228Z,19.7
2017-09-09T15:56:04.033Z,19.7
2017-09-09T15:57:03.272Z,19.7
2017-09-09T15:58:04.275Z,19.7
2017-09-09T15:59:03.125Z,19.7
2017-09-09T16:00:03.791Z,19.7
2017-09-09T16:01:03.372Z,19.7
2017-09-09T16:02:03.826Z,19.7
2017-09-09T16:03:05.001Z,19.8
2017-09-09T16:04:04.852Z,19.8
2017-09-09T16:05:04.749Z,19.8
2017-09-09T16:06:04.764Z,19.8
2017-09-09T16:07:05.203Z,19.6
2017-09-09T16:08:04.089Z,19.5
2017-09-09T16:09:03.204Z,19.4
2017-09-09T16:10:03.846Z,19.3
2017-09-09T16:11:03.722Z,19.3
2017-09-09T16:12:05.925Z,19.2
2017-09-09T16:13:03.901Z,19.2
2017-09-09T16:14:03.404Z,19.2
2017-09-09T16:15:03.852Z,19.2
2017-09-09T16:16:03.080Z,19.1
2017-09-09T16:17:03.697Z,19
2017-09-09T16:18:03.315Z,19
2017-09-09T16:19:03.730Z,19
2017-09-09T16:20:02.627Z,19
2017-09-09T16:21:02.879Z,19.1
2017-09-09T16:22:08.724Z,19
2017-09-09T16:23:03.293Z,19
2017-09-09T16:24:04.278Z,19
2017-09-09T16:25:03.721Z,19
2017-09-09T16:26:04.794Z,19
2017-09-09T16:27:05.095Z,19
2017-09-09T16:28:03.126Z,19
2017-09-09T16:29:04.072Z,18.9
2017-09-09T16:30:04.006Z,18.8
2017-09-09T16:31:03.816Z,18.9
2017-09-09T16:32:03.882Z,18.9
2017-09-09T16:33:03.656Z,18.9
2017-09-09T16:34:03.608Z,18.9
2017-09-09T16:35:02.909Z,19
2017-09-09T16:36:03.233Z,19
2017-09-09T16:37:03.509Z,19
2017-09-09T16:38:03.789Z,18.9
2017-09-09T16:39:03.683Z,19
2017-09-09T16:40:03.803Z,19
2017-09-09T16:41:03.347Z,18.9
2017-09-09T16:42:04.580Z,18.9
2017-09-09T16:43:03.763Z,18.8
2017-09-09T16:44:03.453Z,18.9
2017-09-09T16:45:03.579Z,18.9
2017-09-09T16:46:04.220Z,18.9
2017-09-09T16:47:03.891Z,18.9
2017-09-09T16:48:03.908Z,18.9
2017-09-09T16:49:03.621Z,19
2017-09-09T16:50:02.936Z,19
2017-09-09T16:51:03.831Z,19
2017-09-09T16:52:03.160Z,19
2017-09-09T16:53:04.044Z,19
2017-09-09T16:54:03.347Z,19
2017-09-09T16:55:04.097Z,19
2017-09-09T16:56:04.113Z,19
2017-09-09T16:57:03.396Z,19
2017-09-09T16:58:04.156Z,19
2017-09-09T16:59:03.990Z,18.9
2017-09-09T17:00:03.581Z,18.9
2017-09-09T17:01:03.768Z,18.9
2017-09-09T17:02:04.864Z,18.9
2017-09-09T17:03:04.509Z,18.9
2017-09-09T17:04:04.002Z,18.9
2017-09-09T17:05:03.553Z,18.9
2017-09-09T17:06:04.276Z,18.9
2017-09-09T17:07:03.981Z,18.9
2017-09-09T17:08:04.015Z,18.8
2017-09-09T17:09:03.531Z,18.7
2017-09-09T17:10:03.604Z,18.7
2017-09-09T17:11:04.213Z,18.7
2017-09-09T17:12:03.530Z,18.7
2017-09-09T17:13:04.665Z,18.6
2017-09-09T17:14:04.061Z,18.6
2017-09-09T17:15:04.068Z,18.6
2017-09-09T17:16:03.782Z,18.6
2017-09-09T17:17:03.763Z,18.6
2017-09-09T17:18:03.780Z,18.6
2017-09-09T17:19:03.829Z,18.6
2017-09-09T17:20:04.524Z,18.6
2017-09-09T17:21:04.422Z,18.6
2017-09-09T17:22:04.125Z,18.5
2017-09-09T17:23:03.647Z,18.5
2017-09-09T17:24:04.349Z,18.5
2017-09-09T17:25:04.475Z,18.6
2017-09-09T17:26:04.590Z,18.6
2017-09-09T17:27:04.508Z,18.6
2017-09-09T17:28:04.570Z,18.6
2017-09-09T17:29:04.380Z,18.6
2017-09-09T17:30:03.611Z,18.7
2017-09-09T17:31:04.296Z,18.8
2017-09-09T17:32:03.747Z,18.8
2017-09-09T17:33:03.430Z,18.8
2017-09-09T17:34:03.686Z,18.8
2017-09-09T17:35:04.264Z,18.7
2017-09-09T17:36:03.728Z,18.7
2017-09-09T17:37:03.226Z,18.7
2017-09-09T17:38:03.742Z,18.7
2017-09-09T17:39:02.825Z,18.6
2017-09-09T17:40:04.122Z,18.7
2017-09-09T17:41:03.400Z,18.8
2017-09-09T17:42:03.856Z,18.8
2017-09-09T17:43:03.426Z,18.8
2017-09-09T17:44:04.292Z,18.7
2017-09-09T17:45:04.133Z,18.7
2017-09-09T17:46:03.869Z,18.8
2017-09-09T17:47:03.780Z,18.8
2017-09-09T17:48:04.678Z,18.8
2017-09-09T17:49:04.110Z,18.8
2017-09-09T17:50:03.482Z,18.8
2017-09-09T17:51:03.970Z,18.8
2017-09-09T17:52:03.934Z,18.8
2017-09-09T17:53:03.605Z,18.9
2017-09-09T17:54:04.672Z,19.1
2017-09-09T17:55:04.129Z,19.2
2017-09-09T17:56:03.716Z,19.3
2017-09-09T17:57:03.200Z,19.4
2017-09-09T17:58:03.717Z,19.5
2017-09-09T17:59:04.599Z,19.6
2017-09-09T18:00:04.456Z,19.6
2017-09-09T18:01:02.903Z,19.7
2017-09-09T18:02:03.632Z,19.8
2017-09-09T18:03:03.319Z,19.8
2017-09-09T18:04:02.994Z,19.9
2017-09-09T18:05:02.492Z,19.9
2017-09-09T18:06:02.941Z,20
2017-09-09T18:07:02.871Z,20
2017-09-09T18:08:03.293Z,20
2017-09-09T18:09:03.269Z,20.1
2017-09-09T18:10:02.779Z,20.1
2017-09-09T18:11:03.290Z,20.2
2017-09-09T18:12:02.934Z,20.2
2017-09-09T18:13:02.787Z,20.2
2017-09-09T18:14:02.839Z,20.3
2017-09-09T18:15:03.117Z,20.3
2017-09-09T18:16:02.611Z,20.3
2017-09-09T18:17:03.083Z,20.4
2017-09-09T18:18:03.062Z,20.4
2017-09-09T18:19:03.482Z,20.4
2017-09-09T18:20:02.719Z,20.4
2017-09-09T18:21:03.391Z,20.5
2017-09-09T18:22:02.927Z,20.5
2017-09-09T18:23:03.411Z,20.5
2017-09-09T18:24:02.919Z,20.5
2017-09-09T18:25:03.799Z,20.5
2017-09-09T18:26:03.501Z,20.5
2017-09-09T18:27:03.198Z,20.5
2017-09-09T18:28:02.448Z,20.5
2017-09-09T18:29:03.338Z,20.5
2017-09-09T18:30:02.375Z,20.5
2017-09-09T18:31:07.812Z,20.5
2017-09-09T18:32:03.465Z,20.5
2017-09-09T18:33:03.361Z,20.5
2017-09-09T18:34:02.954Z,20.5
2017-09-09T18:35:02.373Z,20.5
2017-09-09T18:36:02.792Z,20.5
2017-09-09T18:37:03.606Z,20.5
2017-09-09T18:38:03.250Z,20.5
2017-09-09T18:39:03.579Z,20.6
2017-09-09T18:40:03.049Z,20.6
2017-09-09T18:41:03.474Z,20.7
2017-09-09T18:42:03.384Z,20.7
2017-09-09T18:43:03.077Z,20.8
2017-09-09T18:44:03.672Z,20.8
2017-09-09T18:45:05.098Z,20.8
2017-09-09T18:46:03.004Z,20.8
2017-09-09T18:47:02.859Z,20.8
2017-09-09T18:48:04.202Z,20.8
2017-09-09T18:49:02.856Z,20.8
2017-09-09T18:50:03.665Z,20.8
2017-09-09T18:51:03.072Z,20.8
2017-09-09T18:52:02.412Z,20.8
2017-09-09T18:53:03.069Z,20.8
2017-09-09T18:54:03.457Z,20.9
2017-09-09T18:55:03.023Z,20.9
2017-09-09T18:56:02.953Z,20.9
2017-09-09T18:57:03.227Z,20.9
2017-09-09T18:58:02.903Z,20.9
2017-09-09T18:59:03.333Z,21
2017-09-09T19:00:02.785Z,21
2017-09-09T19:01:03.597Z,21
2017-09-09T19:02:04.221Z,21
2017-09-09T19:03:03.877Z,21
2017-09-09T19:04:03.710Z,21
2017-09-09T19:05:04.120Z,21
2017-09-09T19:06:03.897Z,21
2017-09-09T19:07:03.720Z,21
2017-09-09T19:08:04.375Z,21
2017-09-09T19:09:04.180Z,21
